Time;durP1;ratioP1;P1;durP2;ratioP2;P2;SDS_P1;SDS_P2;PMS_P1;PMS_P2;Temp;Humidity;BMP_temperature;BMP_pressure;BME280_temperature;BME280_humidity;BME280_pressure;Samples;Min_cycle;Max_cycle;Signal;HPM_P1;HPM_P2
2022/08/22 00:00:15;;;;;;;20.23;12.65;;;;;;;16.78;79.26;101501.66;5053917;28;20142;-61
2022/08/22 00:03:02;;;;;;;21.45;12.60;;;;;;;16.74;79.93;101505.44;5053953;28;20036;-60
2022/08/22 00:05:42;;;;;;;19.95;12.35;;;;;;;16.72;80.23;101505.78;5054178;28;20039;-61
2022/08/22 00:08:10;;;;;;;20.40;12.82;;;;;;;16.63;81.03;101502.19;5036177;28;20037;-61
2022/08/22 00:11:30;;;;;;;20.50;12.32;;;;;;;16.59;80.56;101504.81;5053611;28;20035;-61
2022/08/22 00:14:09;;;;;;;21.55;12.77;;;;;;;16.51;81.08;101497.28;4972614;28;20038;-62
2022/08/22 00:16:43;;;;;;;21.92;13.23;;;;;;;16.50;81.25;101501.22;5044551;28;20049;-62
2022/08/22 00:19:44;;;;;;;20.58;12.88;;;;;;;16.50;81.13;101501.22;5054014;28;20106;-61
2022/08/22 00:22:34;;;;;;;23.83;13.13;;;;;;;16.48;80.98;101492.34;5054097;28;20021;-62
2022/08/22 00:25:20;;;;;;;19.42;12.43;;;;;;;16.53;81.22;101495.78;5053551;28;20029;-61
2022/08/22 00:28:09;;;;;;;21.70;13.50;;;;;;;16.53;81.36;101500.56;5052927;28;20017;-61
2022/08/22 00:30:53;;;;;;;23.23;13.20;;;;;;;16.44;81.44;101492.19;5053832;28;20112;-61
2022/08/22 00:33:26;;;;;;;20.85;12.93;;;;;;;16.50;81.09;101499.25;5053352;28;20564;-60
2022/08/22 00:36:06;;;;;;;20.98;12.75;;;;;;;16.55;80.79;101503.84;5053799;28;20029;-60
2022/08/22 00:38:37;;;;;;;22.08;13.00;;;;;;;16.50;81.08;101499.25;5053770;28;20055;-60
2022/08/22 00:41:09;;;;;;;20.73;12.77;;;;;;;16.57;80.96;101509.09;5053475;28;20063;-60
2022/08/22 00:44:00;;;;;;;22.08;13.02;;;;;;;16.55;81.09;101503.84;5053573;28;20032;-60
2022/08/22 00:46:44;;;;;;;21.85;13.18;;;;;;;16.55;80.50;101497.44;5044868;28;20041;-61
2022/08/22 00:49:16;;;;;;;22.25;13.60;;;;;;;16.45;80.51;101493.84;5053549;28;20036;-61
2022/08/22 00:51:48;;;;;;;22.20;14.07;;;;;;;16.50;80.63;101493.66;5053545;28;20064;-61
2022/08/22 00:54:34;;;;;;;23.33;13.25;;;;;;;16.52;80.61;101508.13;5053671;28;20104;-61
2022/08/22 00:57:27;;;;;;;22.45;13.85;;;;;;;16.53;80.21;101509.75;5053439;28;20090;-60
2022/08/22 01:00:07;;;;;;;21.40;13.30;;;;;;;16.56;80.47;101501.88;5052712;28;20100;-61
2022/08/22 01:02:55;;;;;;;22.63;13.07;;;;;;;16.56;80.52;101516.66;5053572;28;20112;-61
2022/08/22 01:05:45;;;;;;;21.95;13.23;;;;;;;16.62;80.48;101511.72;5052967;28;20110;-62
2022/08/22 01:08:41;;;;;;;24.25;13.57;;;;;;;16.63;80.16;101516.97;5052960;28;20487;-62
2022/08/22 01:11:37;;;;;;;21.98;13.35;;;;;;;16.64;80.16;101507.44;5053288;28;20059;-61
2022/08/22 01:14:39;;;;;;;22.05;14.00;;;;;;;16.65;80.42;101508.25;5052956;28;20035;-61
2022/08/22 01:17:14;;;;;;;22.83;14.23;;;;;;;16.59;81.09;101510.41;5068234;22;20514;-62
2022/08/22 01:20:01;;;;;;;21.83;14.00;;;;;;;16.59;80.80;101504.81;5012075;28;20140;-62
2022/08/22 01:22:32;;;;;;;22.92;13.68;;;;;;;16.53;81.42;101500.56;5013233;28;20025;-61
2022/08/22 01:25:35;;;;;;;22.65;13.75;;;;;;;16.52;81.03;101505.31;5013413;28;20037;-62
2022/08/22 01:28:34;;;;;;;20.95;13.13;;;;;;;16.51;80.67;101503.69;5013131;28;20072;-62
2022/08/22 01:31:14;;;;;;;22.60;14.18;;;;;;;16.52;80.57;101502.53;5013280;28;20030;-65
2022/08/22 01:33:58;;;;;;;22.05;13.73;;;;;;;16.55;80.35;101501.03;5013000;28;20112;-62
2022/08/22 01:36:42;;;;;;;23.20;13.95;;;;;;;16.53;80.72;101504.16;5013285;28;20042;-61
2022/08/22 01:39:13;;;;;;;23.08;14.70;;;;;;;16.52;81.00;101504.50;4995489;28;20045;-61
2022/08/22 01:41:50;;;;;;;25.52;14.85;;;;;;;16.52;80.84;101504.50;5013236;28;20113;-62
2022/08/22 01:44:54;;;;;;;20.60;14.10;;;;;;;16.45;80.83;101493.00;5013232;28;20034;-62
2022/08/22 01:47:25;;;;;;;22.17;14.77;;;;;;;16.38;81.50;101491.53;5012874;28;20062;-61
2022/08/22 01:50:11;;;;;;;23.27;14.38;;;;;;;16.38;80.97;101485.16;5012776;28;20030;-61
2022/08/22 01:52:51;;;;;;;21.20;13.43;;;;;;;16.49;81.36;101494.00;5012683;28;20034;-60
2022/08/22 01:55:34;;;;;;;23.17;14.38;;;;;;;16.41;81.63;101492.84;5012796;28;20029;-60
2022/08/22 01:58:03;;;;;;;21.90;14.05;;;;;;;16.40;81.66;101490.38;5012846;28;20029;-61
2022/08/22 02:01:01;;;;;;;24.63;14.90;;;;;;;16.40;81.64;101493.19;5012161;28;20414;-62
2022/08/22 02:03:32;;;;;;;22.52;14.13;;;;;;;16.29;82.43;101493.53;5012574;28;20037;-61
2022/08/22 02:06:05;;;;;;;23.70;14.85;;;;;;;16.32;82.63;101501.25;5012357;28;20048;-61
2022/08/22 02:08:46;;;;;;;23.40;14.13;;;;;;;16.31;82.45;101499.59;5012693;28;20034;-63
2022/08/22 02:11:33;;;;;;;21.33;14.00;;;;;;;16.30;82.75;101497.13;5012425;28;20056;-62
2022/08/22 02:14:27;;;;;;;23.40;14.32;;;;;;;16.25;82.94;101495.31;4994659;28;20419;-62
2022/08/22 02:17:24;;;;;;;25.42;15.10;;;;;;;16.23;83.13;101489.25;5012377;28;20158;-63
2022/08/22 02:20:13;;;;;;;22.40;14.77;;;;;;;16.16;83.87;101497.28;5005317;28;20469;-61
2022/08/22 02:22:52;;;;;;;22.92;14.30;;;;;;;16.06;84.19;101487.28;5012454;28;20045;-61
2022/08/22 02:25:31;;;;;;;23.70;15.10;;;;;;;16.09;84.35;101486.63;5012393;28;20359;-61
2022/08/22 02:28:08;;;;;;;24.60;14.93;;;;;;;16.10;84.66;101491.06;5012269;28;20057;-61
2022/08/22 02:30:50;;;;;;;23.42;14.48;;;;;;;16.05;84.61;101480.91;5012458;28;20121;-61
2022/08/22 02:33:29;;;;;;;22.65;15.05;;;;;;;16.01;85.10;101473.50;5011851;28;20048;-61
2022/08/22 02:36:20;;;;;;;25.73;14.45;;;;;;;16.05;83.99;101482.84;5012355;28;20176;-62
2022/08/22 02:39:19;;;;;;;24.27;14.15;;;;;;;16.09;84.45;101494.19;5003135;28;20133;-61
2022/08/22 02:42:04;;;;;;;22.98;14.60;;;;;;;16.05;84.87;101482.84;5011836;28;20025;-62
2022/08/22 02:44:35;;;;;;;23.20;13.48;;;;;;;16.05;84.85;101483.69;5011906;28;20026;-62
2022/08/22 02:47:07;;;;;;;21.90;13.70;;;;;;;16.04;85.06;101482.03;5012045;28;20065;-62
2022/08/22 02:50:04;;;;;;;21.85;14.27;;;;;;;16.05;85.00;101480.06;5012313;28;20459;-61
2022/08/22 02:53:02;;;;;;;22.63;13.93;;;;;;;16.04;84.84;101476.47;5012085;28;20031;-60
2022/08/22 02:55:34;;;;;;;21.40;13.38;;;;;;;15.99;85.16;101468.25;5012332;28;20045;-61
2022/08/22 02:58:10;;;;;;;21.73;13.90;;;;;;;16.04;85.68;101482.03;5010610;28;20096;-60
2022/08/22 03:00:44;;;;;;;23.75;13.65;;;;;;;16.00;85.50;101469.06;5012567;28;20030;-61
2022/08/22 03:03:23;;;;;;;23.65;13.55;;;;;;;15.99;85.30;101462.66;5011368;28;20068;-61
2022/08/22 03:06:04;;;;;;;22.25;14.15;;;;;;;16.05;85.24;101480.91;5011952;28;20109;-61
2022/08/22 03:08:29;;;;;;;22.17;13.40;;;;;;;16.07;85.22;101477.78;5011452;28;20033;-61
2022/08/22 03:11:25;;;;;;;22.17;13.95;;;;;;;16.06;85.25;101471.34;5011232;28;20392;-61
2022/08/22 03:14:26;;;;;;;22.85;13.65;;;;;;;16.08;85.02;101473.84;5011580;28;20053;-61
2022/08/22 03:17:07;;;;;;;23.30;13.73;;;;;;;16.09;85.20;101474.63;5011572;28;20370;-62
2022/08/22 03:19:54;;;;;;;20.88;12.77;;;;;;;16.12;84.86;101479.56;5011606;28;20068;-62
2022/08/22 03:22:30;;;;;;;22.67;12.88;;;;;;;16.13;84.84;101475.63;5011776;28;20038;-62
2022/08/22 03:25:17;;;;;;;21.85;13.07;;;;;;;16.09;85.28;101469.06;5011973;28;20054;-61
2022/08/22 03:27:50;;;;;;;24.02;13.60;;;;;;;16.03;86.09;101466.44;5011925;28;20065;-61
2022/08/22 03:30:20;;;;;;;21.63;12.98;;;;;;;16.02;85.73;101463.97;5011865;28;20052;-61
2022/08/22 03:32:58;;;;;;;20.90;13.02;;;;;;;16.02;85.88;101470.38;5011580;28;20026;-61
2022/08/22 03:35:36;;;;;;;22.15;13.60;;;;;;;15.95;86.60;101452.47;5011424;28;20048;-62
2022/08/22 03:38:15;;;;;;;22.92;14.40;;;;;;;15.98;86.31;101460.19;5011618;28;20028;-62
2022/08/22 03:41:25;;;;;;;22.15;13.55;;;;;;;15.97;86.17;101459.38;5011789;28;20124;-62
2022/08/22 03:44:10;;;;;;;22.77;13.75;;;;;;;15.97;85.64;101450.19;4958153;28;20071;-62
2022/08/22 03:46:38;;;;;;;21.63;13.10;;;;;;;15.94;86.04;101448.03;5011382;28;20034;-62
2022/08/22 03:49:41;;;;;;;20.20;13.43;;;;;;;15.95;85.76;101452.47;5011474;28;20524;-62
2022/08/22 03:52:31;;;;;;;24.05;13.93;;;;;;;15.89;85.79;101446.25;5011111;28;20025;-61
2022/08/22 03:55:24;;;;;;;23.50;13.68;;;;;;;15.87;86.28;101448.56;5011580;28;20021;-64
2022/08/22 03:58:00;;;;;;;25.27;14.00;;;;;;;15.81;87.04;101447.03;5011240;28;20026;-62
2022/08/22 04:01:03;;;;;;;24.25;14.48;;;;;;;15.74;87.11;101448.34;5010823;28;20053;-62
2022/08/22 04:03:45;;;;;;;23.23;14.48;;;;;;;15.66;87.16;101446.38;5011246;28;20026;-62
2022/08/22 04:06:26;;;;;;;24.23;14.50;;;;;;;15.58;88.15;101448.00;5010983;28;20034;-62
2022/08/22 04:09:12;;;;;;;22.30;13.88;;;;;;;15.55;88.04;101445.84;5012543;28;20022;-61
2022/08/22 04:12:13;;;;;;;21.38;13.23;;;;;;;15.50;88.00;101454.38;5014725;28;20030;-61
2022/08/22 04:15:02;;;;;;;22.33;14.35;;;;;;;15.47;88.61;101460.59;4981603;28;20107;-60
2022/08/22 04:18:00;;;;;;;21.35;14.07;;;;;;;15.40;88.79;101458.28;5014182;28;20022;-61
2022/08/22 04:20:55;;;;;;;22.98;13.80;;;;;;;15.32;88.39;101452.69;5014735;28;20025;-60
2022/08/22 04:23:47;;;;;;;23.00;15.38;;;;;;;15.32;88.85;101464.66;5014424;28;20026;-61
2022/08/22 04:26:24;;;;;;;25.77;14.98;;;;;;;15.22;89.45;101462.16;5014585;28;20041;-61
2022/08/22 04:28:57;;;;;;;22.15;14.45;;;;;;;15.16;90.19;101466.25;5014617;28;20022;-61
2022/08/22 04:31:28;;;;;;;23.63;15.03;;;;;;;15.16;90.08;101461.47;5014583;28;20033;-61
2022/08/22 04:34:07;;;;;;;23.45;14.70;;;;;;;15.10;90.79;101462.78;5014993;28;20026;-62
2022/08/22 04:36:42;;;;;;;23.08;14.77;;;;;;;15.06;91.29;101467.38;5014259;28;20045;-61
2022/08/22 04:39:17;;;;;;;23.02;15.15;;;;;;;15.00;91.33;101466.69;5014353;28;20026;-61
2022/08/22 04:42:13;;;;;;;22.67;15.57;;;;;;;15.03;91.26;101462.44;5014214;28;20104;-61
2022/08/22 04:45:20;;;;;;;24.02;15.32;;;;;;;15.04;91.17;101462.09;5013935;28;20781;-61
2022/08/22 04:47:55;;;;;;;22.75;15.38;;;;;;;15.06;91.84;101462.59;5012690;28;20073;-62
2022/08/22 04:50:20;;;;;;;25.13;15.55;;;;;;;15.08;91.69;101457.53;5013774;28;20062;-61
2022/08/22 04:53:03;;;;;;;23.85;15.18;;;;;;;15.08;91.71;101465.06;5013492;28;20064;-62
2022/08/22 04:55:55;;;;;;;23.25;14.90;;;;;;;15.09;91.76;101459.19;5014106;28;20085;-61
2022/08/22 04:58:38;;;;;;;24.90;15.80;;;;;;;14.94;91.90;101454.03;5002936;28;20116;-61
2022/08/22 05:01:24;;;;;;;22.73;14.68;;;;;;;15.05;91.66;101471.31;5014243;28;20054;-61
2022/08/22 05:04:07;;;;;;;23.58;15.23;;;;;;;15.11;92.12;101484.75;5013503;28;20072;-61
2022/08/22 05:06:38;;;;;;;23.23;14.60;;;;;;;15.10;92.15;101479.50;5013477;28;20037;-60
2022/08/22 05:09:09;;;;;;;24.85;15.07;;;;;;;15.16;91.76;101481.00;5013328;28;20030;-60
2022/08/22 05:11:37;;;;;;;21.95;15.55;;;;;;;15.21;92.15;101475.28;5013130;28;20033;-60
2022/08/22 05:14:07;;;;;;;23.80;14.95;;;;;;;15.33;92.07;101490.59;5013727;28;20030;-60
2022/08/22 05:16:40;;;;;;;22.85;14.55;;;;;;;15.33;91.60;101477.44;5013430;28;20119;-61
2022/08/22 05:19:14;;;;;;;27.35;15.48;;;;;;;15.42;92.29;101488.66;5013458;28;20054;-61
2022/08/22 05:21:41;;;;;;;;;;;;;;;15.50;89.96;101493.41;5013711;28;20030;-61
2022/08/22 05:24:08;;;;;;;25.02;15.68;;;;;;;15.51;91.35;101475.53;5013409;28;19913;-62
2022/08/22 05:26:37;;;;;;;26.42;15.32;;;;;;;15.51;91.78;101475.53;5013163;28;20109;-62
2022/08/22 05:29:06;;;;;;;24.23;15.23;;;;;;;15.59;91.80;101482.28;5013049;28;20037;-62
2022/08/22 05:31:41;;;;;;;27.02;16.23;;;;;;;15.64;91.91;101484.09;5013340;28;20102;-61
2022/08/22 05:34:12;;;;;;;24.85;15.82;;;;;;;15.66;91.49;101479.00;5013021;28;20027;-61
2022/08/22 05:36:42;;;;;;;25.50;15.68;;;;;;;15.70;91.43;101486.41;5013233;28;20037;-61
2022/08/22 05:39:14;;;;;;;25.10;16.48;;;;;;;15.74;91.60;101495.78;5013175;28;20026;-62
2022/08/22 05:41:41;;;;;;;24.35;17.33;;;;;;;15.75;91.35;101496.56;5012680;28;20427;-61
2022/08/22 05:44:16;;;;;;;25.67;17.30;;;;;;;15.70;91.61;101486.41;5013278;28;20144;-61
2022/08/22 05:46:44;;;;;;;26.83;16.88;;;;;;;15.77;91.41;101494.28;5013062;28;20029;-62
2022/08/22 05:49:28;;;;;;;25.20;16.55;;;;;;;15.89;90.65;101499.25;5012923;28;20022;-62
2022/08/22 05:52:31;;;;;;;24.95;16.88;;;;;;;15.95;90.18;101485.97;5013702;28;20065;-61
2022/08/22 05:55:03;;;;;;;25.58;16.23;;;;;;;16.04;90.33;101498.78;5013224;28;20030;-62
2022/08/22 05:57:35;;;;;;;26.67;17.40;;;;;;;16.11;89.93;101497.47;5013122;28;20104;-61
2022/08/22 06:00:15;;;;;;;29.60;17.85;;;;;;;16.09;90.00;101488.59;5012863;28;20075;-61
2022/08/22 06:02:49;;;;;;;25.05;16.80;;;;;;;16.19;89.74;101493.84;5012751;28;20022;-61
2022/08/22 06:05:23;;;;;;;24.95;18.08;;;;;;;16.19;89.98;101494.69;5013077;28;20378;-61
2022/08/22 06:07:52;;;;;;;28.55;18.15;;;;;;;16.17;89.47;101490.56;5012986;28;20033;-61
2022/08/22 06:10:41;;;;;;;26.35;17.63;;;;;;;16.23;89.42;101494.84;5012666;28;20101;-61
2022/08/22 06:13:15;;;;;;;28.30;17.90;;;;;;;16.26;89.82;101488.59;5012837;28;20096;-60
2022/08/22 06:15:50;;;;;;;23.90;16.50;;;;;;;16.36;89.14;101504.19;5012623;28;20501;-60
2022/08/22 06:18:24;;;;;;;26.15;17.00;;;;;;;16.41;89.13;101501.22;4991494;28;20042;-61
2022/08/22 06:20:59;;;;;;;27.70;17.17;;;;;;;16.44;89.07;101491.34;4993183;28;20023;-61
2022/08/22 06:23:42;;;;;;;25.27;17.13;;;;;;;16.61;88.95;101513.69;4992642;28;20518;-61
2022/08/22 06:26:10;;;;;;;24.30;16.30;;;;;;;16.70;88.15;101508.06;4993040;28;20209;-61
2022/08/22 06:28:42;;;;;;;26.35;16.60;;;;;;;16.78;87.93;101506.44;4992985;28;20026;-60
2022/08/22 06:31:16;;;;;;;28.90;18.45;;;;;;;16.87;87.82;101509.19;4992047;28;20482;-61
2022/08/22 06:33:43;;;;;;;28.92;18.73;;;;;;;16.99;87.75;101517.72;4992570;28;20034;-60
2022/08/22 06:36:30;;;;;;;28.27;17.48;;;;;;;17.05;87.13;101516.38;4993047;28;20035;-61
2022/08/22 06:39:13;;;;;;;26.05;17.50;;;;;;;17.03;86.37;101507.53;4992962;28;20131;-60
2022/08/22 06:42:03;;;;;;;26.63;15.75;;;;;;;17.13;86.76;101523.09;4993087;28;20018;-60
2022/08/22 06:44:37;;;;;;;24.73;15.80;;;;;;;17.12;86.59;101505.53;4991468;28;20327;-61
2022/08/22 06:47:04;;;;;;;;;;;;;;;17.32;86.06;101517.13;4993101;28;20100;-61
2022/08/22 06:49:34;;;;;;;25.58;16.02;;;;;;;17.34;86.16;101509.19;4992722;28;20354;-61
2022/08/22 06:52:02;;;;;;;24.85;16.80;;;;;;;17.38;85.55;101507.38;4992402;28;20030;-61
2022/08/22 06:54:33;;;;;;;24.92;16.25;;;;;;;17.45;85.76;101513.25;4992477;28;20341;-61
2022/08/22 06:57:00;;;;;;;24.75;16.45;;;;;;;17.52;85.25;101512.72;4992690;28;20077;-62
2022/08/22 06:59:29;;;;;;;25.25;16.38;;;;;;;17.56;85.76;101510.91;4991133;28;20041;-61
2022/08/22 07:02:06;;;;;;;28.55;17.55;;;;;;;17.65;85.59;101510.84;4992514;28;20442;-62
2022/08/22 07:04:32;;;;;;;25.55;16.60;;;;;;;17.72;85.11;101518.72;4992089;28;20031;-61
2022/08/22 07:07:00;;;;;;;24.55;17.63;;;;;;;17.63;84.82;101518.75;4991975;28;20479;-62
2022/08/22 07:09:33;;;;;;;27.40;17.25;;;;;;;17.68;85.08;101514.94;4992163;28;20479;-59
2022/08/22 07:12:03;;;;;;;23.27;15.93;;;;;;;17.69;85.10;101511.81;4992443;28;20035;-59
2022/08/22 07:14:40;;;;;;;25.67;17.25;;;;;;;17.84;84.72;101523.56;4991646;28;20026;-60
2022/08/22 07:17:14;;;;;;;25.02;18.00;;;;;;;17.89;83.77;101537.38;4992314;28;20070;-59
2022/08/22 07:19:44;;;;;;;;;;;;;;;18.03;84.00;101543.56;5011421;28;20077;-61
2022/08/22 07:22:25;;;;;;;26.88;17.30;;;;;;;18.01;83.85;101531.06;5011843;28;19976;-60
2022/08/22 07:24:59;;;;;;;27.55;17.50;;;;;;;18.11;83.17;101535.41;5011637;28;20148;-60
2022/08/22 07:27:56;;;;;;;26.17;17.30;;;;;;;18.12;82.95;101529.50;5011509;28;20034;-60
2022/08/22 07:30:33;;;;;;;26.77;17.30;;;;;;;18.14;83.07;101521.56;5011805;28;20030;-60
2022/08/22 07:33:01;;;;;;;26.38;17.42;;;;;;;18.24;83.30;101526.75;5011582;28;20036;-61
2022/08/22 07:35:40;;;;;;;24.73;17.63;;;;;;;18.29;82.82;101525.72;5011852;28;20423;-60
2022/08/22 07:38:28;;;;;;;23.98;17.13;;;;;;;18.37;82.64;101524.00;5011849;28;20467;-60
2022/08/22 07:40:59;;;;;;;27.10;17.27;;;;;;;18.46;82.62;101530.34;5011929;28;20079;-60
2022/08/22 07:43:30;;;;;;;27.08;16.67;;;;;;;18.53;81.96;101530.59;5012366;28;20080;-60
2022/08/22 07:46:12;;;;;;;25.85;17.45;;;;;;;18.62;82.07;101519.31;5015443;28;20040;-60
2022/08/22 07:48:48;;;;;;;25.73;16.92;;;;;;;18.71;81.97;101519.22;5015064;28;20529;-60
2022/08/22 07:51:16;;;;;;;25.73;16.20;;;;;;;18.81;80.06;101515.19;5015327;28;20032;-60
2022/08/22 07:53:55;;;;;;;25.20;17.40;;;;;;;18.89;80.40;101513.47;5015126;28;20018;-60
2022/08/22 07:56:25;;;;;;;24.52;17.25;;;;;;;18.85;80.05;101508.53;5015243;28;20117;-60
2022/08/22 07:59:05;;;;;;;26.00;17.20;;;;;;;18.95;79.74;101500.88;5015038;28;20069;-60
2022/08/22 08:01:31;;;;;;;27.50;17.83;;;;;;;19.04;79.36;101517.56;5015189;28;20367;-60
2022/08/22 08:04:09;;;;;;;28.77;18.25;;;;;;;19.05;79.37;101516.41;5015225;28;20078;-60
2022/08/22 08:06:35;;;;;;;29.35;18.13;;;;;;;19.24;79.56;101510.25;5015077;28;20120;-61
2022/08/22 08:09:02;;;;;;;30.58;17.27;;;;;;;19.47;78.14;101508.59;5015005;28;20018;-59
2022/08/22 08:11:38;;;;;;;27.83;18.35;;;;;;;19.68;77.48;101499.25;5013100;28;20474;-60
2022/08/22 08:14:07;;;;;;;28.25;18.02;;;;;;;19.80;76.20;101496.41;5012473;28;20058;-59
2022/08/22 08:17:08;;;;;;;28.10;16.92;;;;;;;20.02;76.97;101501.91;5011860;28;20160;-60
2022/08/22 08:19:38;;;;;;;28.40;18.13;;;;;;;20.19;75.72;101500.78;4998117;28;20053;-60
2022/08/22 08:22:04;;;;;;;24.85;16.58;;;;;;;20.29;73.86;101499.47;5012525;28;20061;-60
2022/08/22 08:24:35;;;;;;;26.08;17.27;;;;;;;20.18;73.15;101487.94;5012157;28;20080;-60
2022/08/22 08:29:57;;;;;;;26.80;17.50;;;;;;;20.39;73.94;101490.53;5011720;28;20131;-60
2022/08/22 08:32:26;;;;;;;26.70;17.27;;;;;;;20.40;73.43;101476.09;5011924;28;20079;-60
2022/08/22 08:34:52;;;;;;;26.58;16.98;;;;;;;20.51;72.94;101481.22;5011982;28;20029;-60
2022/08/22 08:37:36;;;;;;;29.92;17.13;;;;;;;20.52;73.03;101478.06;5012395;28;20083;-60
2022/08/22 08:40:29;;;;;;;25.13;17.42;;;;;;;20.51;72.65;101484.84;5012049;28;20398;-60
2022/08/22 08:46:15;;;;;;;30.50;18.63;;;;;;;20.72;72.30;101484.59;5010490;28;20115;-60
2022/08/22 08:48:48;;;;;;;25.23;16.83;;;;;;;20.76;71.92;101475.50;5009515;28;20029;-60
2022/08/22 08:51:46;;;;;;;26.65;17.00;;;;;;;20.92;71.65;101487.56;5011236;28;20036;-60
2022/08/22 08:54:42;;;;;;;25.05;17.27;;;;;;;20.98;71.04;101482.50;5010795;28;20084;-60
2022/08/22 08:57:42;;;;;;;26.40;18.88;;;;;;;21.12;71.14;101482.03;5011008;28;20480;-60
2022/08/22 09:00:20;;;;;;;28.88;17.60;;;;;;;21.28;70.29;101474.38;5011472;28;20041;-60
2022/08/22 09:02:45;;;;;;;27.00;16.90;;;;;;;21.47;68.96;101476.47;5011559;28;20478;-61
2022/08/22 09:05:42;;;;;;;25.90;17.48;;;;;;;21.61;67.99;101481.66;5011527;28;20060;-60
2022/08/22 09:08:45;;;;;;;25.65;15.45;;;;;;;21.73;67.02;101474.22;5011884;28;20520;-60
2022/08/22 09:11:45;;;;;;;24.17;15.75;;;;;;;21.92;65.66;101471.44;5012123;28;20084;-60
2022/08/22 09:14:42;;;;;;;23.70;15.32;;;;;;;22.04;64.36;101469.66;5012397;28;20037;-61
2022/08/22 09:17:32;;;;;;;24.77;15.60;;;;;;;22.07;63.80;101474.56;4959224;28;20038;-60
2022/08/22 09:20:29;;;;;;;26.55;14.80;;;;;;;22.16;64.22;101472.34;5010216;28;20111;-60
2022/08/22 09:23:13;;;;;;;26.13;15.75;;;;;;;22.22;64.24;101464.41;5011963;28;20655;-61
2022/08/22 09:25:49;;;;;;;25.25;15.40;;;;;;;22.34;62.52;101458.59;5011847;28;20041;-60
2022/08/22 09:28:37;;;;;;;23.48;14.75;;;;;;;22.40;61.82;101457.16;5011756;28;20109;-59
2022/08/22 09:31:09;;;;;;;21.48;13.68;;;;;;;22.46;59.22;101466.13;5011884;28;20034;-60
2022/08/22 09:33:53;;;;;;;21.50;13.35;;;;;;;22.60;60.48;101468.41;5012012;28;20048;-60
2022/08/22 09:36:43;;;;;;;20.58;13.02;;;;;;;22.68;58.89;101461.72;5010791;28;20029;-60
2022/08/22 09:39:16;;;;;;;22.17;12.52;;;;;;;22.79;57.75;101470.34;5011838;28;20532;-60
2022/08/22 09:42:05;;;;;;;22.73;13.65;;;;;;;;;;5011903;28;20045;-60
2022/08/22 09:45:06;;;;;;;21.90;12.70;;;;;;;22.94;57.58;101467.78;5011873;28;20117;-59
2022/08/22 09:47:47;;;;;;;21.13;13.50;;;;;;;23.06;56.16;101471.22;4959867;28;20084;-60
2022/08/22 09:50:26;;;;;;;21.10;13.52;;;;;;;23.17;55.71;101465.75;5009496;28;20088;-61
2022/08/22 09:53:30;;;;;;;23.00;13.57;;;;;;;23.31;57.31;101462.38;5011223;28;20030;-61
2022/08/22 09:56:05;;;;;;;;;;;;;;;23.52;58.42;101459.06;5010155;28;20509;-61
2022/08/22 09:58:57;;;;;;;20.23;12.90;;;;;;;23.60;55.64;101464.81;5010558;28;19913;-60
2022/08/22 10:01:51;;;;;;;22.25;12.43;;;;;;;23.62;54.42;101460.41;5010723;28;20532;-59
2022/08/22 10:04:32;;;;;;;26.73;13.95;;;;;;;23.66;54.47;101468.94;5011004;28;20141;-59
2022/08/22 10:07:25;;;;;;;22.02;13.52;;;;;;;23.63;54.42;101453.56;5009666;28;20034;-60
2022/08/22 10:10:24;;;;;;;21.40;13.07;;;;;;;23.64;52.35;101457.19;5010646;28;20034;-61
2022/08/22 10:13:10;;;;;;;21.02;12.82;;;;;;;23.69;53.33;101442.75;4997547;28;20037;-60
2022/08/22 10:16:05;;;;;;;21.85;13.00;;;;;;;23.82;52.51;101440.50;5010399;28;20375;-61
2022/08/22 10:18:42;;;;;;;22.15;12.77;;;;;;;23.85;51.11;101448.22;5011042;28;20548;-59
2022/08/22 10:21:13;;;;;;;20.27;11.70;;;;;;;23.75;49.46;101434.78;5009352;28;20081;-60
2022/08/22 10:23:50;;;;;;;23.08;11.77;;;;;;;23.81;50.48;101442.50;5011234;28;20057;-60
2022/08/22 10:26:28;;;;;;;22.33;12.70;;;;;;;23.90;50.66;101438.59;5010733;28;20030;-60
2022/08/22 10:29:25;;;;;;;21.27;13.07;;;;;;;23.82;51.27;101432.03;5010961;28;20044;-61
2022/08/22 10:32:29;;;;;;;25.58;15.75;;;;;;;23.75;52.48;101424.28;5010454;28;20112;-60
2022/08/22 10:35:01;;;;;;;23.13;12.02;;;;;;;23.83;51.93;101428.81;5010836;28;20030;-61
2022/08/22 10:37:37;;;;;;;22.08;11.73;;;;;;;23.94;50.32;101420.53;5010924;28;20034;-61
2022/08/22 10:40:07;;;;;;;20.00;11.07;;;;;;;24.10;49.63;101430.78;5010937;28;20034;-59
2022/08/22 10:42:37;;;;;;;21.10;11.40;;;;;;;24.04;48.66;101413.38;5010610;28;20113;-59
2022/08/22 10:45:17;;;;;;;19.15;10.80;;;;;;;24.11;50.54;101412.63;5009826;28;20072;-60
2022/08/22 10:47:52;;;;;;;17.75;9.80;;;;;;;24.35;49.50;101427.41;5008784;28;20034;-60
2022/08/22 10:50:24;;;;;;;17.50;9.60;;;;;;;24.51;48.13;101428.00;5008184;28;20507;-61
2022/08/22 10:55:57;;;;;;;19.83;9.93;;;;;;;24.52;47.19;101412.66;5009337;28;20048;-59
2022/08/22 10:58:31;;;;;;;19.10;9.73;;;;;;;24.61;46.00;101415.16;5008900;28;20040;-59
2022/08/22 11:01:00;;;;;;;18.60;9.80;;;;;;;24.80;46.15;101419.00;5010547;28;20030;-60
2022/08/22 11:03:41;;;;;;;20.27;9.93;;;;;;;24.84;46.65;101412.16;5010243;28;20447;-60
2022/08/22 11:06:28;;;;;;;19.40;9.50;;;;;;;24.75;46.58;101409.66;5010189;28;20038;-60
2022/08/22 11:09:09;;;;;;;17.55;9.82;;;;;;;24.91;46.16;101414.25;5010447;28;20118;-61
2022/08/22 11:11:37;;;;;;;21.08;10.35;;;;;;;24.94;44.53;101406.97;5010451;28;20045;-60
2022/08/22 11:14:21;;;;;;;18.77;9.27;;;;;;;24.94;44.62;101413.44;5009699;28;20441;-60
2022/08/22 11:17:16;;;;;;;19.40;10.18;;;;;;;25.05;46.30;101405.84;5009533;28;20152;-60
2022/08/22 11:19:50;;;;;;;18.33;10.43;;;;;;;25.03;43.22;101411.09;5013302;28;20613;-60
2022/08/22 11:22:29;;;;;;;19.60;9.85;;;;;;;24.92;44.60;101393.22;5013106;28;20038;-60
2022/08/22 11:25:00;;;;;;;20.40;10.40;;;;;;;24.97;44.50;101414.69;5012727;28;20520;-60
2022/08/22 11:28:02;;;;;;;19.60;10.43;;;;;;;24.95;45.50;101415.06;5013036;28;20208;-60
2022/08/22 11:30:37;;;;;;;18.02;9.82;;;;;;;25.15;44.98;101401.50;4995701;28;20129;-60
2022/08/22 11:33:14;;;;;;;22.17;10.50;;;;;;;25.35;44.65;101401.22;5013153;28;20049;-61
2022/08/22 11:35:47;;;;;;;20.80;10.48;;;;;;;25.56;44.02;101409.03;4995650;28;20092;-60
2022/08/22 11:38:37;;;;;;;19.95;9.90;;;;;;;25.59;45.30;101408.25;4995221;28;20030;-61
2022/08/22 11:41:17;;;;;;;18.48;9.77;;;;;;;25.78;44.52;101409.16;5013238;28;20029;-61
2022/08/22 11:43:58;;;;;;;19.17;9.55;;;;;;;25.84;43.25;101402.69;5012824;28;20033;-60
2022/08/22 11:46:30;;;;;;;15.20;9.38;;;;;;;25.70;42.16;101394.94;5012673;28;20029;-60
2022/08/22 11:49:14;;;;;;;19.75;9.73;;;;;;;25.60;41.42;101380.72;5011696;28;20064;-60
2022/08/22 11:52:12;;;;;;;17.88;9.82;;;;;;;25.61;43.04;101396.50;5013619;28;20084;-59
2022/08/22 11:54:59;;;;;;;19.63;9.90;;;;;;;25.74;43.39;101392.09;4995985;28;20076;-60
2022/08/22 11:57:38;;;;;;;17.35;9.07;;;;;;;25.98;42.37;101399.06;5013603;28;20030;-60
2022/08/22 12:00:23;;;;;;;18.85;9.73;;;;;;;26.27;42.52;101387.03;5013046;28;20206;-60
2022/08/22 12:03:14;;;;;;;17.48;9.85;;;;;;;26.44;42.41;101391.94;5013304;28;20433;-60
2022/08/22 12:05:50;;;;;;;18.77;9.82;;;;;;;26.50;42.27;101386.66;5012535;28;20034;-60
2022/08/22 12:08:35;;;;;;;16.42;9.07;;;;;;;26.49;39.06;101389.91;5008413;28;20041;-60
2022/08/22 12:11:26;;;;;;;16.23;9.15;;;;;;;26.62;40.43;101388.28;4986495;28;20041;-60
2022/08/22 12:14:03;;;;;;;18.90;9.23;;;;;;;26.57;38.47;101383.03;4986484;28;20030;-61
2022/08/22 12:16:38;;;;;;;16.63;9.18;;;;;;;26.49;38.68;101398.44;5012508;28;20040;-60
2022/08/22 12:19:30;;;;;;;22.17;10.07;;;;;;;26.43;39.05;101387.47;5002666;28;20058;-61
2022/08/22 12:22:10;;;;;;;18.40;9.43;;;;;;;26.38;37.69;101390.72;5012885;28;20049;-60